Česky Dansk Deutsch English Español Suomi Français Magyar Italiano Nederlands norsk Polski Português svenska Türkçe

 

Het Weer

Barra Do Garcas (Brazilië)

21:15, 22 augustus 2016 (GMT)

NWNNE
WE
SWSSE
Home            
Barra Do Garcas Xavantina Goiania Aeroporto Anapolis Braz-Afb Cuiaba Aeroporto Gama Brasilia Aeroporto Uberlandia Campo Grande Aeroporto Uberaba Corumba Puerto Suarez Presidente Prudente Porto Nacional Aeroporto Leite Lopes / Ribeir Cachimbo Alta Floresta Aeroporto Bauru Ponta Pora Intl Robore Sao Carlos Londrina Aeroporto Maringa

Om een weerknop op uw website of weblog te plaatsen, copieer onderstaande code en plak die in uw pagina. In het eerste vakje staat HTML-code, in het tweede vakje UBB-code.


Add to Google

Details

Wind speed:3 bf, 10 kn, 5.1 m/s, 11.5 miles/h, 18.5 km/h
Wind direction:WSW, 240°
Visibility:Greater than 10000 m, 10 km, 32800 ft, 6.2 miles
Clouds:CAVOC
Temperature:26°C, 79°F
Gefühlte Temperatur:26°C, 79°F
Dew-point:9°C, 48°F
Atmospheric pressure:1017 hPa, 762.8 mmHg, 30.03 inHg, 1.004 atm
Relative humidity:34.2 %
METAR:SBBW 222115Z 24010KT CAVOK 26/09 Q1017

Snelkoppelingen

Actuele weersinformatie van de hele wereld. Voeg locaties toe met het plus (+) symbool. Deze snelkoppelingen kunnen worden toegevoegd aan Google.

Lid van de Technetium groep

website free tracking
StatCounter NetStat W3C Validator

26-09-2020 05:28:13
astro.technetium.be money.technetium.be phote.technetium.be tafeltennistafel.technetium.be www.ligfiets.net